Flight Track Log - Related Links

Times and Time Zones

All times are in EDT time to prevent confusion due to time zone crossing. See the TRS719 flight status page for this flight to view local times or setup timezone preferences in your user account.

Time Position Orientation Groundspeed Altitude Reporting Facility
EDT Latitude Longitude Course Direction KTS MPH feet Rate Location/Type
Sun 06:23:25 PM 30.4161 -107.6639 North 447 514 39,000  Level Albuquerque Center
Sun 06:24:26 PM 30.5408 -107.6478 North 448 516 39,000  Level Albuquerque Center
Sun 06:25:27 PM 30.6644 -107.6331 North 448 516 39,000  Level Albuquerque Center
Sun 06:26:29 PM 30.7889 -107.6156 North 449 517 39,000  Level Albuquerque Center
Sun 06:27:30 PM 30.9372 -107.5958 North 448 516 39,000  Level Albuquerque Center
Sun 06:28:32 PM 31.0597 -107.5811 North 445 512 39,000  Level Albuquerque Center
Sun 06:29:33 PM 31.1828 -107.5650 North 444 511 39,000  Level Albuquerque Center
Sun 06:30:35 PM 31.3039 -107.5472 North 440 506 39,000  Level Albuquerque Center
Sun 06:31:36 PM 31.4261 -107.5317 North 440 506 39,000  Level Albuquerque Center
Sun 06:32:38 PM 31.5486 -107.5156 North 442 509 39,000  Level Albuquerque Center
Sun 06:33:39 PM 31.6717 -107.4989 North 445 512 39,000  Level Albuquerque Center
Sun 06:34:40 PM 31.7936 -107.4828 North 441 507 39,000  Level Albuquerque Center
Sun 06:35:42 PM 31.9156 -107.4664 North 441 507 39,000  Level Albuquerque Center
Sun 06:36:43 PM 32.0594 -107.4458 North 435 501 39,000  Level Albuquerque Center
Sun 06:37:45 PM 32.1797 -107.4308 North 434 499 39,000  Level Albuquerque Center
Sun 06:38:46 PM 32.2972 -107.4167 North 431 496 39,000  Level Albuquerque Center
Sun 06:39:48 PM 32.4158 -107.4008 North 430 495 39,000  Level Albuquerque Center
Sun 06:40:49 PM 32.5342 -107.3839 North 432 497 39,000  Level Albuquerque Center
Sun 06:41:50 PM 32.6525 -107.3661 North 431 496 39,000  Level Albuquerque Center
Sun 06:42:52 PM 32.7803 -107.3450 North 424 488 39,000  Level Albuquerque Center
Sun 06:43:53 PM 32.8983 -107.3264 North 424 488 39,000  Level Albuquerque Center
Sun 06:44:55 PM 33.0158 -107.3064 North 425 489 39,000  Level Albuquerque Center
Sun 06:45:56 PM 33.1303 -107.2872 North 418 481 39,000  Level Albuquerque Center
Sun 06:46:57 PM 33.2433 -107.2703 North 412 474 39,000  Level Albuquerque Center
Sun 06:47:59 PM 33.3578 -107.2500 North 412 474 39,000  Level Albuquerque Center
Sun 06:49:00 PM 33.4981 -107.2261 North 420 483 39,000  Level Albuquerque Center
Sun 06:50:02 PM 33.6139 -107.2092 North 420 483 39,000 439 Level Albuquerque Center
Sun 06:51:03 PM 33.7289 -107.1897 North 418 481 39,900 836 Climbing Albuquerque Center
Sun 06:52:04 PM 33.8442 -107.1692 North 419 482 40,700 537 Climbing Albuquerque Center
Sun 06:53:06 PM 33.9608 -107.1508 North 421 484 41,000 146 Climbing Albuquerque Center
Sun 06:54:07 PM 34.0800 -107.1283 North 430 495 41,000  Level Albuquerque Center
Sun 06:55:08 PM 34.1989 -107.1103 North 430 495 41,000  Level Albuquerque Center
Sun 06:56:10 PM 34.3131 -107.0900 North 427 491 41,000  Level Albuquerque Center
Sun 06:57:11 PM 34.4539 -107.0667 North 426 490 41,000  Level Albuquerque Center
Sun 06:58:13 PM 34.5711 -107.0475 North 424 488 41,000  Level Albuquerque Center
Sun 06:59:14 PM 34.6881 -107.0278 North 425 489 41,000  Level Albuquerque Center
Sun 07:00:15 PM 34.8033 -107.0069 North 418 481 41,000  Level Albuquerque Center
Sun 07:01:17 PM 34.9183 -106.9872 North 418 481 41,000  Level Albuquerque Center
Sun 07:02:18 PM 35.0450 -106.9661 North 413 475 41,000  Level Albuquerque Center
Sun 07:03:20 PM 35.1536 -106.9464 North 412 474 41,000  Level Albuquerque Center
Sun 07:04:21 PM 35.2808 -106.9244 North 414 476 41,000  Level Albuquerque Center
Sun 07:05:22 PM 35.3853 -106.9072 North 418 481 41,000  Level Albuquerque Center
Sun 07:06:24 PM 35.5031 -106.8861 North 426 490 41,000  Level Albuquerque Center
Sun 07:07:25 PM 35.6197 -106.8653 North 423 487 41,000  Level Albuquerque Center
Sun 07:08:26 PM 35.7444 -106.8447 North 420 483 41,000  Level Albuquerque Center
Sun 07:09:28 PM 35.8731 -106.8225 North 419 482 41,000  Level Albuquerque Center
Sun 07:10:29 PM 35.9661 -106.8058 North 418 481 41,000  Level Albuquerque Center
Sun 07:11:31 PM 36.1050 -106.7814 North 419 482 41,000  Level Albuquerque Center
Sun 07:12:32 PM 36.2211 -106.7617 North 414 476 41,000  Level Albuquerque Center
Sun 07:13:33 PM 36.3275 -106.7422 North 407 468 41,000  Level Albuquerque Center
Sun 07:14:20 PM 36.4181 -106.7247 North 409 471 41,000  Level Denver Center
Sun 07:15:22 PM 36.5244 -106.7050 North 405 466 41,000 -585 Level Denver Center
Sun 07:16:23 PM 36.6508 -106.6839 North 407 468 39,800 -976 Descending Denver Center
Sun 07:17:25 PM 36.7500 -106.6653 North 383 441 39,000 -353 Descending Denver Center
Sun 07:18:39 PM 36.8600 -106.6417 10° North 364 419 39,000  Level Denver Center
Sun 07:19:42 PM 36.9903 -106.6036 13° North 374 430 39,000  Level Denver Center
Sun 07:20:44 PM 37.0850 -106.5731 14° North 369 425 39,000  Level Denver Center
Sun 07:21:46 PM 37.1997 -106.5397 13° North 374 430 39,000  Level Denver Center
Sun 07:22:47 PM 37.2972 -106.5100 14° North 376 433 39,000  Level Denver Center
Sun 07:23:49 PM 37.3950 -106.4786 14° North 377 434 39,000  Level Denver Center
Sun 07:24:51 PM 37.5100 -106.4447 13° North 378 435 39,000  Level Denver Center
Sun 07:25:53 PM 37.6078 -106.4150 14° North 376 433 39,000  Level Denver Center
Sun 07:26:55 PM 37.7208 -106.3794 14° North 376 433 39,000  Level Denver Center
Sun 07:27:57 PM 37.8250 -106.3464 14° North 377 434 39,000  Level Denver Center
Sun 07:28:59 PM 37.9225 -106.3172 13° North 376 433 39,000  Level Denver Center
Sun 07:30:01 PM 38.0383 -106.2819 13° North 381 438 39,000 -242 Level Denver Center
Sun 07:31:03 PM 38.1275 -106.2403 20° North 383 441 38,500 -774 Descending Denver Center
Sun 07:32:05 PM 38.2392 -106.1708 26° Northeast 376 433 37,400 -1,016 Descending Denver Center
Sun 07:33:07 PM 38.3233 -106.0972 34° Northeast 385 443 36,400 -1,016 Descending Denver Center
Sun 07:34:09 PM 38.4222 -106.0156 33° Northeast 379 436 35,300 -677 Descending Denver Center
Sun 07:35:11 PM 38.5083 -105.9425 34° Northeast 384 442 35,000 -823 Descending Denver Center
Sun 07:36:13 PM 38.6086 -105.8583 33° Northeast 386 444 33,600 -1,694 Descending Denver Center
Sun 07:37:15 PM 38.6939 -105.7856 34° Northeast 385 443 31,500 -1,984 Descending Denver Center
Sun 07:38:17 PM 38.7764 -105.7167 33° Northeast 374 430 29,500 -2,081 Descending Denver Center
Sun 07:39:19 PM 38.8694 -105.6364 34° Northeast 363 418 27,200 -2,032 Descending Denver Center
Sun 07:40:21 PM 38.9500 -105.5689 33° Northeast 361 415 25,300 -2,032 Descending Denver Center
Sun 07:41:23 PM 39.0408 -105.4903 34° Northeast 355 409 23,000 -2,032 Descending Denver Center
Sun 07:42:25 PM 39.1200 -105.4219 34° Northeast 351 404 21,100 -1,935 Descending Denver Center
Sun 07:43:27 PM 39.2050 -105.3483 34° Northeast 346 398 19,000 -1,452 Descending Denver Center
Sun 07:44:29 PM 39.2681 -105.2544 49° Northeast 332 382 18,100 -1,113 Descending Denver Center
Sun 07:45:31 PM 39.2889 -105.1369 77° East 338 389 16,700 -1,488 Descending Denver Center
Sun 07:46:34 PM 39.3128 -105.0125 76° East 334 384 15,000 -1,488 Descending Denver Center
Sun 07:47:36 PM 39.3433 -104.9078 69° East 313 360 13,600 -1,355 Descending Denver Center
Sun 07:48:38 PM 39.3836 -104.7992 64° Northeast 313 360 12,200 -774 Descending Denver Center
Sun 07:49:40 PM 39.4411 -104.7311 42° Northeast 288 331 12,000 -581 Descending Denver Center
Sun 07:50:42 PM 39.5075 -104.6747 33° Northeast 267 307 11,000 -774 Descending Denver Center
Sun 07:51:44 PM 39.5697 -104.6433 21° North 250 288 10,400 -919 Descending Denver Center
Sun 07:52:46 PM 39.6378 -104.6447 359° North 230 265 9,100 -1,210 Descending Denver Center
Sun 07:53:48 PM 39.6978 -104.6439 North 219 252 7,900 -1,065 Descending Denver Center
Sun 07:54:50 PM 39.7492 -104.6431 North 192 221 6,900 -871 Descending Denver Center
Sun 07:55:52 PM 39.7939 -104.6428 360° North 156 180 6,100 -726 Descending Denver Center
Sun 07:56:54 PM 39.8339 -104.6414 North 146 168 5,400 -677 Descending Denver Center
Sun 07:58:00 PM 39.8500 -104.6667 North  Level FlightAware Approximate
Sun 08:05:00 PM 39.8617 -104.6732 North  Level Estimated
Sun 08:06:00 PM 39.8617 -104.6732 North  Level Estimated
Sun 08:07:00 PM 39.8617 -104.6732 North  Level Estimated

Login

Don't have an account? Register now (free) for customized features, flight alerts, and more!